sensor_id;sensor_type;location;lat;lon;timestamp;P1;durP1;ratioP1;P2;durP2;ratioP2
52942;SDS011;38809;53.300;6.614;2023-06-05T00:01:13;5.47;;;2.95;;
52942;SDS011;38809;53.300;6.614;2023-06-05T00:03:39;5.32;;;3.45;;
52942;SDS011;38809;53.300;6.614;2023-06-05T00:06:05;4.82;;;3.10;;
52942;SDS011;38809;53.300;6.614;2023-06-05T00:08:33;4.38;;;2.60;;
52942;SDS011;38809;53.300;6.614;2023-06-05T00:10:59;5.82;;;2.70;;
52942;SDS011;38809;53.300;6.614;2023-06-05T00:13:25;5.10;;;2.60;;
52942;SDS011;38809;53.300;6.614;2023-06-05T00:15:50;6.53;;;3.13;;
52942;SDS011;38809;53.300;6.614;2023-06-05T00:18:17;3.85;;;2.80;;
52942;SDS011;38809;53.300;6.614;2023-06-05T00:20:42;4.45;;;3.20;;
52942;SDS011;38809;53.300;6.614;2023-06-05T00:23:08;4.53;;;2.75;;
52942;SDS011;38809;53.300;6.614;2023-06-05T00:25:36;5.07;;;3.30;;
52942;SDS011;38809;53.300;6.614;2023-06-05T00:28:02;8.35;;;3.75;;
52942;SDS011;38809;53.300;6.614;2023-06-05T00:30:28;5.28;;;3.33;;
52942;SDS011;38809;53.300;6.614;2023-06-05T00:32:54;6.32;;;3.70;;
52942;SDS011;38809;53.300;6.614;2023-06-05T00:35:20;5.68;;;3.70;;
52942;SDS011;38809;53.300;6.614;2023-06-05T00:37:46;6.28;;;4.18;;
52942;SDS011;38809;53.300;6.614;2023-06-05T00:40:12;6.22;;;3.70;;
52942;SDS011;38809;53.300;6.614;2023-06-05T00:42:38;6.45;;;4.30;;
52942;SDS011;38809;53.300;6.614;2023-06-05T00:45:04;6.25;;;3.92;;
52942;SDS011;38809;53.300;6.614;2023-06-05T00:47:31;6.63;;;4.15;;
52942;SDS011;38809;53.300;6.614;2023-06-05T00:49:58;5.15;;;3.65;;
52942;SDS011;38809;53.300;6.614;2023-06-05T00:52:24;5.88;;;3.58;;
52942;SDS011;38809;53.300;6.614;2023-06-05T00:54:51;7.18;;;4.07;;
52942;SDS011;38809;53.300;6.614;2023-06-05T00:57:17;8.07;;;4.35;;
52942;SDS011;38809;53.300;6.614;2023-06-05T00:59:43;6.63;;;3.85;;
52942;SDS011;38809;53.300;6.614;2023-06-05T01:02:10;6.47;;;3.97;;
52942;SDS011;38809;53.300;6.614;2023-06-05T01:04:39;6.53;;;3.75;;
52942;SDS011;38809;53.300;6.614;2023-06-05T01:07:11;6.65;;;4.00;;
52942;SDS011;38809;53.300;6.614;2023-06-05T01:09:39;6.35;;;4.25;;
52942;SDS011;38809;53.300;6.614;2023-06-05T01:14:31;7.70;;;3.33;;
52942;SDS011;38809;53.300;6.614;2023-06-05T01:17:03;3.92;;;2.63;;
52942;SDS011;38809;53.300;6.614;2023-06-05T01:19:30;3.53;;;2.55;;
52942;SDS011;38809;53.300;6.614;2023-06-05T01:21:58;4.47;;;2.83;;
52942;SDS011;38809;53.300;6.614;2023-06-05T01:24:24;4.10;;;2.70;;
52942;SDS011;38809;53.300;6.614;2023-06-05T01:29:47;4.60;;;2.83;;
52942;SDS011;38809;53.300;6.614;2023-06-05T01:38:18;4.10;;;2.78;;
52942;SDS011;38809;53.300;6.614;2023-06-05T01:40:45;4.10;;;2.65;;
52942;SDS011;38809;53.300;6.614;2023-06-05T01:43:13;4.50;;;2.50;;
52942;SDS011;38809;53.300;6.614;2023-06-05T01:45:40;3.33;;;2.17;;
52942;SDS011;38809;53.300;6.614;2023-06-05T01:48:07;2.95;;;2.00;;
52942;SDS011;38809;53.300;6.614;2023-06-05T01:50:35;4.25;;;2.42;;
52942;SDS011;38809;53.300;6.614;2023-06-05T01:53:03;3.60;;;2.30;;
52942;SDS011;38809;53.300;6.614;2023-06-05T01:55:29;3.20;;;2.30;;
52942;SDS011;38809;53.300;6.614;2023-06-05T02:00:21;3.20;;;1.90;;
52942;SDS011;38809;53.300;6.614;2023-06-05T02:02:48;2.72;;;1.70;;
52942;SDS011;38809;53.300;6.614;2023-06-05T02:07:47;4.10;;;2.30;;
52942;SDS011;38809;53.300;6.614;2023-06-05T02:10:23;3.30;;;1.98;;
52942;SDS011;38809;53.300;6.614;2023-06-05T02:12:49;3.63;;;2.60;;
52942;SDS011;38809;53.300;6.614;2023-06-05T02:15:15;3.20;;;2.20;;
52942;SDS011;38809;53.300;6.614;2023-06-05T02:17:44;3.40;;;2.25;;
52942;SDS011;38809;53.300;6.614;2023-06-05T02:20:15;3.60;;;2.35;;
52942;SDS011;38809;53.300;6.614;2023-06-05T02:22:42;4.63;;;2.60;;
52942;SDS011;38809;53.300;6.614;2023-06-05T02:25:09;3.58;;;2.22;;
52942;SDS011;38809;53.300;6.614;2023-06-05T02:30:02;3.38;;;1.95;;
52942;SDS011;38809;53.300;6.614;2023-06-05T02:32:28;4.47;;;2.72;;
52942;SDS011;38809;53.300;6.614;2023-06-05T02:34:54;4.00;;;2.38;;
52942;SDS011;38809;53.300;6.614;2023-06-05T02:37:25;3.45;;;2.20;;
52942;SDS011;38809;53.300;6.614;2023-06-05T02:39:51;3.33;;;2.15;;
52942;SDS011;38809;53.300;6.614;2023-06-05T02:42:17;3.28;;;2.22;;
52942;SDS011;38809;53.300;6.614;2023-06-05T02:47:09;2.83;;;1.83;;
52942;SDS011;38809;53.300;6.614;2023-06-05T02:49:35;3.25;;;2.28;;
52942;SDS011;38809;53.300;6.614;2023-06-05T02:52:02;3.00;;;2.00;;
52942;SDS011;38809;53.300;6.614;2023-06-05T02:54:28;3.90;;;2.40;;
52942;SDS011;38809;53.300;6.614;2023-06-05T02:56:54;3.33;;;2.13;;
52942;SDS011;38809;53.300;6.614;2023-06-05T02:59:24;3.63;;;2.45;;
52942;SDS011;38809;53.300;6.614;2023-06-05T03:01:50;4.40;;;2.58;;
52942;SDS011;38809;53.300;6.614;2023-06-05T03:04:17;4.05;;;2.38;;
52942;SDS011;38809;53.300;6.614;2023-06-05T03:06:49;3.40;;;2.42;;
52942;SDS011;38809;53.300;6.614;2023-06-05T03:09:16;3.65;;;2.40;;
52942;SDS011;38809;53.300;6.614;2023-06-05T03:11:43;4.32;;;2.25;;
52942;SDS011;38809;53.300;6.614;2023-06-05T03:14:08;4.30;;;2.00;;
52942;SDS011;38809;53.300;6.614;2023-06-05T03:16:34;4.53;;;2.38;;
52942;SDS011;38809;53.300;6.614;2023-06-05T03:19:06;3.63;;;2.50;;
52942;SDS011;38809;53.300;6.614;2023-06-05T03:21:38;3.50;;;2.10;;
52942;SDS011;38809;53.300;6.614;2023-06-05T03:24:13;4.15;;;2.30;;
52942;SDS011;38809;53.300;6.614;2023-06-05T03:26:42;5.85;;;2.67;;
52942;SDS011;38809;53.300;6.614;2023-06-05T03:29:11;3.85;;;2.03;;
52942;SDS011;38809;53.300;6.614;2023-06-05T03:31:38;3.28;;;2.10;;
52942;SDS011;38809;53.300;6.614;2023-06-05T03:34:03;3.55;;;2.00;;
52942;SDS011;38809;53.300;6.614;2023-06-05T03:36:29;3.92;;;2.35;;
52942;SDS011;38809;53.300;6.614;2023-06-05T03:38:58;4.60;;;2.40;;
52942;SDS011;38809;53.300;6.614;2023-06-05T03:41:24;3.17;;;2.17;;
52942;SDS011;38809;53.300;6.614;2023-06-05T03:43:50;3.67;;;2.20;;
52942;SDS011;38809;53.300;6.614;2023-06-05T03:46:16;6.30;;;2.58;;
52942;SDS011;38809;53.300;6.614;2023-06-05T03:48:45;4.28;;;1.90;;
52942;SDS011;38809;53.300;6.614;2023-06-05T03:51:11;4.13;;;1.98;;
52942;SDS011;38809;53.300;6.614;2023-06-05T03:53:38;3.17;;;2.08;;
52942;SDS011;38809;53.300;6.614;2023-06-05T03:56:08;3.00;;;2.00;;
52942;SDS011;38809;53.300;6.614;2023-06-05T03:58:34;3.67;;;1.85;;
52942;SDS011;38809;53.300;6.614;2023-06-05T04:00:59;4.30;;;1.98;;
52942;SDS011;38809;53.300;6.614;2023-06-05T04:03:25;3.10;;;1.95;;
52942;SDS011;38809;53.300;6.614;2023-06-05T04:05:52;2.97;;;1.60;;
52942;SDS011;38809;53.300;6.614;2023-06-05T04:08:18;3.40;;;2.10;;
52942;SDS011;38809;53.300;6.614;2023-06-05T04:10:43;3.53;;;1.90;;
52942;SDS011;38809;53.300;6.614;2023-06-05T04:13:09;3.38;;;1.90;;
52942;SDS011;38809;53.300;6.614;2023-06-05T04:15:35;3.22;;;2.08;;
52942;SDS011;38809;53.300;6.614;2023-06-05T04:20:27;3.42;;;2.08;;
52942;SDS011;38809;53.300;6.614;2023-06-05T04:22:53;3.58;;;2.33;;
52942;SDS011;38809;53.300;6.614;2023-06-05T04:25:18;3.47;;;2.25;;
52942;SDS011;38809;53.300;6.614;2023-06-05T04:27:45;3.43;;;2.07;;
52942;SDS011;38809;53.300;6.614;2023-06-05T04:30:13;3.40;;;2.15;;
52942;SDS011;38809;53.300;6.614;2023-06-05T04:32:39;3.88;;;2.60;;
52942;SDS011;38809;53.300;6.614;2023-06-05T04:35:06;3.30;;;2.20;;
52942;SDS011;38809;53.300;6.614;2023-06-05T04:37:33;3.30;;;1.90;;
52942;SDS011;38809;53.300;6.614;2023-06-05T04:40:03;4.78;;;2.40;;
52942;SDS011;38809;53.300;6.614;2023-06-05T04:42:34;3.20;;;2.00;;
52942;SDS011;38809;53.300;6.614;2023-06-05T04:45:01;3.15;;;1.70;;
52942;SDS011;38809;53.300;6.614;2023-06-05T04:47:29;2.97;;;1.77;;
52942;SDS011;38809;53.300;6.614;2023-06-05T04:49:59;2.70;;;1.77;;
52942;SDS011;38809;53.300;6.614;2023-06-05T04:52:32;3.65;;;1.70;;
52942;SDS011;38809;53.300;6.614;2023-06-05T04:55:00;3.97;;;1.80;;
52942;SDS011;38809;53.300;6.614;2023-06-05T04:57:28;2.90;;;1.70;;
52942;SDS011;38809;53.300;6.614;2023-06-05T04:59:54;3.53;;;1.73;;
52942;SDS011;38809;53.300;6.614;2023-06-05T05:02:21;3.22;;;1.70;;
52942;SDS011;38809;53.300;6.614;2023-06-05T05:04:47;2.50;;;1.48;;
52942;SDS011;38809;53.300;6.614;2023-06-05T05:07:13;4.90;;;1.83;;
52942;SDS011;38809;53.300;6.614;2023-06-05T05:09:41;3.22;;;1.85;;
52942;SDS011;38809;53.300;6.614;2023-06-05T05:14:34;2.85;;;1.83;;
52942;SDS011;38809;53.300;6.614;2023-06-05T05:17:00;4.38;;;1.67;;
52942;SDS011;38809;53.300;6.614;2023-06-05T05:19:27;2.38;;;1.55;;
52942;SDS011;38809;53.300;6.614;2023-06-05T05:21:53;3.25;;;1.60;;
52942;SDS011;38809;53.300;6.614;2023-06-05T05:24:19;3.13;;;1.38;;
52942;SDS011;38809;53.300;6.614;2023-06-05T05:26:45;2.55;;;1.30;;
52942;SDS011;38809;53.300;6.614;2023-06-05T05:29:11;2.92;;;1.50;;
52942;SDS011;38809;53.300;6.614;2023-06-05T05:31:37;2.38;;;1.40;;
52942;SDS011;38809;53.300;6.614;2023-06-05T05:34:03;2.63;;;1.60;;
52942;SDS011;38809;53.300;6.614;2023-06-05T05:36:29;2.88;;;1.67;;
52942;SDS011;38809;53.300;6.614;2023-06-05T05:38:54;2.60;;;1.20;;
52942;SDS011;38809;53.300;6.614;2023-06-05T05:41:20;1.80;;;1.10;;
52942;SDS011;38809;53.300;6.614;2023-06-05T05:43:47;2.10;;;1.20;;
52942;SDS011;38809;53.300;6.614;2023-06-05T05:46:13;2.22;;;1.40;;
52942;SDS011;38809;53.300;6.614;2023-06-05T05:48:39;2.88;;;1.83;;
52942;SDS011;38809;53.300;6.614;2023-06-05T05:51:05;3.15;;;1.30;;
52942;SDS011;38809;53.300;6.614;2023-06-05T05:53:31;2.13;;;1.20;;
52942;SDS011;38809;53.300;6.614;2023-06-05T05:55:57;2.10;;;1.30;;
52942;SDS011;38809;53.300;6.614;2023-06-05T06:00:49;2.30;;;1.27;;
52942;SDS011;38809;53.300;6.614;2023-06-05T06:03:15;2.38;;;1.35;;
52942;SDS011;38809;53.300;6.614;2023-06-05T06:05:41;2.65;;;1.33;;
52942;SDS011;38809;53.300;6.614;2023-06-05T06:08:07;3.70;;;1.30;;
52942;SDS011;38809;53.300;6.614;2023-06-05T06:10:33;2.50;;;1.50;;
52942;SDS011;38809;53.300;6.614;2023-06-05T06:12:59;2.83;;;1.77;;
52942;SDS011;38809;53.300;6.614;2023-06-05T06:15:25;2.70;;;1.55;;
52942;SDS011;38809;53.300;6.614;2023-06-05T06:17:52;2.97;;;1.60;;
52942;SDS011;38809;53.300;6.614;2023-06-05T06:20:18;3.45;;;1.70;;
52942;SDS011;38809;53.300;6.614;2023-06-05T06:22:44;2.70;;;1.70;;
52942;SDS011;38809;53.300;6.614;2023-06-05T06:25:10;2.15;;;1.35;;
52942;SDS011;38809;53.300;6.614;2023-06-05T06:27:37;2.55;;;1.60;;
52942;SDS011;38809;53.300;6.614;2023-06-05T06:32:29;2.47;;;1.63;;
52942;SDS011;38809;53.300;6.614;2023-06-05T06:34:56;4.82;;;1.88;;
52942;SDS011;38809;53.300;6.614;2023-06-05T06:37:22;2.83;;;1.63;;
52942;SDS011;38809;53.300;6.614;2023-06-05T06:39:48;3.35;;;1.75;;
52942;SDS011;38809;53.300;6.614;2023-06-05T06:42:14;3.17;;;1.88;;
52942;SDS011;38809;53.300;6.614;2023-06-05T06:44:40;3.75;;;1.70;;
52942;SDS011;38809;53.300;6.614;2023-06-05T06:47:06;4.88;;;1.90;;
52942;SDS011;38809;53.300;6.614;2023-06-05T06:49:33;2.90;;;1.67;;
52942;SDS011;38809;53.300;6.614;2023-06-05T06:52:03;3.50;;;1.60;;
52942;SDS011;38809;53.300;6.614;2023-06-05T06:54:29;2.72;;;1.75;;
52942;SDS011;38809;53.300;6.614;2023-06-05T06:56:55;2.65;;;1.60;;
52942;SDS011;38809;53.300;6.614;2023-06-05T06:59:21;3.92;;;1.70;;
52942;SDS011;38809;53.300;6.614;2023-06-05T07:01:48;2.45;;;1.70;;
52942;SDS011;38809;53.300;6.614;2023-06-05T07:04:37;2.85;;;1.52;;
52942;SDS011;38809;53.300;6.614;2023-06-05T07:07:03;3.25;;;1.60;;
52942;SDS011;38809;53.300;6.614;2023-06-05T07:09:29;4.43;;;2.85;;
52942;SDS011;38809;53.300;6.614;2023-06-05T07:11:55;4.28;;;1.70;;
52942;SDS011;38809;53.300;6.614;2023-06-05T07:14:21;4.88;;;2.20;;
52942;SDS011;38809;53.300;6.614;2023-06-05T07:19:14;2.55;;;1.67;;
52942;SDS011;38809;53.300;6.614;2023-06-05T07:21:41;2.80;;;1.90;;
52942;SDS011;38809;53.300;6.614;2023-06-05T07:24:06;3.13;;;1.80;;
52942;SDS011;38809;53.300;6.614;2023-06-05T07:26:33;2.80;;;1.60;;
52942;SDS011;38809;53.300;6.614;2023-06-05T07:28:59;4.03;;;2.13;;
52942;SDS011;38809;53.300;6.614;2023-06-05T07:31:24;2.75;;;1.80;;
52942;SDS011;38809;53.300;6.614;2023-06-05T07:33:51;7.35;;;1.50;;
52942;SDS011;38809;53.300;6.614;2023-06-05T07:36:17;2.40;;;1.55;;
52942;SDS011;38809;53.300;6.614;2023-06-05T07:38:42;2.83;;;1.67;;
52942;SDS011;38809;53.300;6.614;2023-06-05T07:41:10;2.45;;;1.48;;
52942;SDS011;38809;53.300;6.614;2023-06-05T07:43:36;2.80;;;1.70;;
52942;SDS011;38809;53.300;6.614;2023-06-05T07:46:05;2.45;;;1.63;;
52942;SDS011;38809;53.300;6.614;2023-06-05T07:48:31;2.70;;;1.75;;
52942;SDS011;38809;53.300;6.614;2023-06-05T07:50:57;4.35;;;2.20;;
52942;SDS011;38809;53.300;6.614;2023-06-05T07:53:23;2.67;;;1.70;;
52942;SDS011;38809;53.300;6.614;2023-06-05T07:55:48;2.85;;;1.30;;
52942;SDS011;38809;53.300;6.614;2023-06-05T07:58:17;2.83;;;1.60;;
52942;SDS011;38809;53.300;6.614;2023-06-05T08:00:43;3.25;;;1.85;;
52942;SDS011;38809;53.300;6.614;2023-06-05T08:03:16;5.35;;;1.75;;
52942;SDS011;38809;53.300;6.614;2023-06-05T08:05:48;2.72;;;1.60;;
52942;SDS011;38809;53.300;6.614;2023-06-05T08:08:15;2.70;;;1.70;;
52942;SDS011;38809;53.300;6.614;2023-06-05T08:10:41;2.42;;;1.55;;
52942;SDS011;38809;53.300;6.614;2023-06-05T08:13:07;3.03;;;1.77;;
52942;SDS011;38809;53.300;6.614;2023-06-05T08:15:33;3.28;;;1.98;;
52942;SDS011;38809;53.300;6.614;2023-06-05T08:17:59;3.58;;;1.55;;
52942;SDS011;38809;53.300;6.614;2023-06-05T08:20:25;3.40;;;2.00;;
52942;SDS011;38809;53.300;6.614;2023-06-05T08:22:51;3.15;;;1.60;;
52942;SDS011;38809;53.300;6.614;2023-06-05T08:25:16;2.85;;;1.50;;
52942;SDS011;38809;53.300;6.614;2023-06-05T08:27:42;2.85;;;1.73;;
52942;SDS011;38809;53.300;6.614;2023-06-05T08:30:08;2.63;;;1.52;;
52942;SDS011;38809;53.300;6.614;2023-06-05T08:32:34;2.40;;;1.58;;
52942;SDS011;38809;53.300;6.614;2023-06-05T08:35:00;3.40;;;1.95;;
52942;SDS011;38809;53.300;6.614;2023-06-05T08:37:25;5.63;;;1.83;;
52942;SDS011;38809;53.300;6.614;2023-06-05T08:39:53;3.90;;;1.70;;
52942;SDS011;38809;53.300;6.614;2023-06-05T08:42:24;2.95;;;1.65;;
52942;SDS011;38809;53.300;6.614;2023-06-05T08:44:53;4.25;;;1.85;;
52942;SDS011;38809;53.300;6.614;2023-06-05T08:47:20;2.60;;;1.67;;
52942;SDS011;38809;53.300;6.614;2023-06-05T08:49:50;3.28;;;1.70;;
52942;SDS011;38809;53.300;6.614;2023-06-05T08:52:19;2.40;;;1.48;;
52942;SDS011;38809;53.300;6.614;2023-06-05T08:54:46;2.33;;;1.23;;
52942;SDS011;38809;53.300;6.614;2023-06-05T08:57:11;2.70;;;1.48;;
52942;SDS011;38809;53.300;6.614;2023-06-05T08:59:37;3.67;;;1.77;;
52942;SDS011;38809;53.300;6.614;2023-06-05T09:02:05;2.70;;;1.67;;
52942;SDS011;38809;53.300;6.614;2023-06-05T09:04:31;2.55;;;1.58;;
52942;SDS011;38809;53.300;6.614;2023-06-05T09:06:59;2.70;;;1.83;;
52942;SDS011;38809;53.300;6.614;2023-06-05T09:09:25;2.67;;;1.80;;
52942;SDS011;38809;53.300;6.614;2023-06-05T09:12:04;2.20;;;1.50;;
52942;SDS011;38809;53.300;6.614;2023-06-05T09:14:32;2.42;;;1.52;;
52942;SDS011;38809;53.300;6.614;2023-06-05T09:16:59;3.72;;;1.60;;
52942;SDS011;38809;53.300;6.614;2023-06-05T09:19:30;3.92;;;1.75;;
52942;SDS011;38809;53.300;6.614;2023-06-05T09:22:05;2.00;;;1.30;;
52942;SDS011;38809;53.300;6.614;2023-06-05T09:24:31;3.95;;;1.73;;
52942;SDS011;38809;53.300;6.614;2023-06-05T09:31:56;2.50;;;1.50;;
52942;SDS011;38809;53.300;6.614;2023-06-05T09:36:56;2.55;;;1.27;;
52942;SDS011;38809;53.300;6.614;2023-06-05T09:39:24;3.72;;;1.50;;
52942;SDS011;38809;53.300;6.614;2023-06-05T09:41:51;2.90;;;1.48;;
52942;SDS011;38809;53.300;6.614;2023-06-05T09:44:18;2.88;;;1.38;;
52942;SDS011;38809;53.300;6.614;2023-06-05T09:49:24;2.92;;;1.20;;
52942;SDS011;38809;53.300;6.614;2023-06-05T09:51:52;3.13;;;1.50;;
52942;SDS011;38809;53.300;6.614;2023-06-05T09:54:18;2.40;;;1.25;;
52942;SDS011;38809;53.300;6.614;2023-06-05T09:56:48;2.30;;;1.23;;
52942;SDS011;38809;53.300;6.614;2023-06-05T09:59:18;3.08;;;1.40;;
52942;SDS011;38809;53.300;6.614;2023-06-05T10:01:46;2.15;;;1.23;;
52942;SDS011;38809;53.300;6.614;2023-06-05T10:04:21;3.33;;;1.38;;
52942;SDS011;38809;53.300;6.614;2023-06-05T10:06:48;2.63;;;1.38;;
52942;SDS011;38809;53.300;6.614;2023-06-05T10:09:16;2.95;;;1.20;;
52942;SDS011;38809;53.300;6.614;2023-06-05T10:11:43;2.92;;;1.30;;
52942;SDS011;38809;53.300;6.614;2023-06-05T10:14:12;2.05;;;1.40;;
52942;SDS011;38809;53.300;6.614;2023-06-05T10:16:39;2.60;;;1.25;;
52942;SDS011;38809;53.300;6.614;2023-06-05T10:19:06;3.30;;;1.40;;
52942;SDS011;38809;53.300;6.614;2023-06-05T10:21:32;2.53;;;1.30;;
52942;SDS011;38809;53.300;6.614;2023-06-05T10:29:27;2.40;;;1.40;;
52942;SDS011;38809;53.300;6.614;2023-06-05T10:32:03;2.58;;;1.10;;
52942;SDS011;38809;53.300;6.614;2023-06-05T10:40:04;3.90;;;1.42;;
52942;SDS011;38809;53.300;6.614;2023-06-05T10:42:31;2.47;;;1.38;;
52942;SDS011;38809;53.300;6.614;2023-06-05T10:44:58;3.60;;;1.30;;
52942;SDS011;38809;53.300;6.614;2023-06-05T10:52:41;2.85;;;1.25;;
52942;SDS011;38809;53.300;6.614;2023-06-05T10:55:07;2.55;;;1.50;;
52942;SDS011;38809;53.300;6.614;2023-06-05T11:00:36;3.80;;;1.60;;
52942;SDS011;38809;53.300;6.614;2023-06-05T11:03:04;2.63;;;1.30;;
52942;SDS011;38809;53.300;6.614;2023-06-05T11:05:31;2.13;;;1.27;;
52942;SDS011;38809;53.300;6.614;2023-06-05T11:08:16;3.10;;;1.10;;
52942;SDS011;38809;53.300;6.614;2023-06-05T11:18:52;2.17;;;1.00;;
52942;SDS011;38809;53.300;6.614;2023-06-05T11:21:20;3.13;;;1.50;;
52942;SDS011;38809;53.300;6.614;2023-06-05T11:26:41;3.33;;;1.65;;
52942;SDS011;38809;53.300;6.614;2023-06-05T11:29:10;3.10;;;1.08;;
52942;SDS011;38809;53.300;6.614;2023-06-05T11:31:38;3.03;;;1.60;;
52942;SDS011;38809;53.300;6.614;2023-06-05T11:34:10;3.55;;;1.65;;
52942;SDS011;38809;53.300;6.614;2023-06-05T11:36:37;3.67;;;1.65;;
52942;SDS011;38809;53.300;6.614;2023-06-05T11:39:03;2.35;;;1.42;;
52942;SDS011;38809;53.300;6.614;2023-06-05T11:41:29;3.13;;;1.63;;
52942;SDS011;38809;53.300;6.614;2023-06-05T11:43:54;2.55;;;1.40;;
52942;SDS011;38809;53.300;6.614;2023-06-05T11:46:43;2.53;;;1.45;;
52942;SDS011;38809;53.300;6.614;2023-06-05T11:49:18;4.77;;;2.03;;
52942;SDS011;38809;53.300;6.614;2023-06-05T11:51:49;3.00;;;1.90;;
52942;SDS011;38809;53.300;6.614;2023-06-05T11:54:31;4.75;;;1.60;;
52942;SDS011;38809;53.300;6.614;2023-06-05T11:56:59;2.42;;;1.30;;
52942;SDS011;38809;53.300;6.614;2023-06-05T11:59:33;3.67;;;1.85;;
52942;SDS011;38809;53.300;6.614;2023-06-05T12:02:00;3.08;;;1.88;;
52942;SDS011;38809;53.300;6.614;2023-06-05T12:04:28;3.90;;;2.13;;
52942;SDS011;38809;53.300;6.614;2023-06-05T12:06:55;2.65;;;1.50;;
52942;SDS011;38809;53.300;6.614;2023-06-05T12:09:21;3.70;;;1.83;;
52942;SDS011;38809;53.300;6.614;2023-06-05T12:11:47;4.10;;;1.58;;
52942;SDS011;38809;53.300;6.614;2023-06-05T12:14:27;2.97;;;1.60;;
52942;SDS011;38809;53.300;6.614;2023-06-05T12:16:57;2.55;;;1.83;;
52942;SDS011;38809;53.300;6.614;2023-06-05T12:19:23;3.10;;;2.15;;
52942;SDS011;38809;53.300;6.614;2023-06-05T12:21:49;3.03;;;1.95;;
52942;SDS011;38809;53.300;6.614;2023-06-05T12:24:24;2.75;;;1.70;;
52942;SDS011;38809;53.300;6.614;2023-06-05T12:26:56;4.75;;;2.50;;
52942;SDS011;38809;53.300;6.614;2023-06-05T12:29:28;4.75;;;2.03;;
52942;SDS011;38809;53.300;6.614;2023-06-05T12:31:56;2.88;;;1.88;;
52942;SDS011;38809;53.300;6.614;2023-06-05T12:39:50;3.08;;;1.90;;
52942;SDS011;38809;53.300;6.614;2023-06-05T12:42:16;3.72;;;1.98;;
52942;SDS011;38809;53.300;6.614;2023-06-05T12:44:42;5.15;;;3.10;;
52942;SDS011;38809;53.300;6.614;2023-06-05T12:47:08;5.10;;;2.72;;
52942;SDS011;38809;53.300;6.614;2023-06-05T12:49:33;3.45;;;2.60;;
52942;SDS011;38809;53.300;6.614;2023-06-05T12:51:59;3.83;;;2.38;;
52942;SDS011;38809;53.300;6.614;2023-06-05T12:54:26;5.30;;;2.83;;
52942;SDS011;38809;53.300;6.614;2023-06-05T12:56:53;3.60;;;2.58;;
52942;SDS011;38809;53.300;6.614;2023-06-05T12:59:20;4.25;;;2.50;;
52942;SDS011;38809;53.300;6.614;2023-06-05T13:01:47;3.63;;;2.30;;
52942;SDS011;38809;53.300;6.614;2023-06-05T13:04:12;3.72;;;2.45;;
52942;SDS011;38809;53.300;6.614;2023-06-05T13:06:38;8.00;;;2.58;;
52942;SDS011;38809;53.300;6.614;2023-06-05T13:09:06;4.30;;;2.67;;
52942;SDS011;38809;53.300;6.614;2023-06-05T13:11:32;4.60;;;2.70;;
52942;SDS011;38809;53.300;6.614;2023-06-05T13:13:58;3.30;;;2.63;;
52942;SDS011;38809;53.300;6.614;2023-06-05T13:16:23;4.40;;;3.00;;
52942;SDS011;38809;53.300;6.614;2023-06-05T13:18:49;3.78;;;2.28;;
52942;SDS011;38809;53.300;6.614;2023-06-05T13:21:15;4.50;;;2.67;;
52942;SDS011;38809;53.300;6.614;2023-06-05T13:23:40;4.05;;;2.80;;
52942;SDS011;38809;53.300;6.614;2023-06-05T13:26:06;4.30;;;2.83;;
52942;SDS011;38809;53.300;6.614;2023-06-05T13:28:32;6.25;;;2.97;;
52942;SDS011;38809;53.300;6.614;2023-06-05T13:30:57;3.60;;;2.80;;
52942;SDS011;38809;53.300;6.614;2023-06-05T13:33:23;5.10;;;2.13;;
52942;SDS011;38809;53.300;6.614;2023-06-05T13:35:52;4.20;;;2.63;;
52942;SDS011;38809;53.300;6.614;2023-06-05T13:38:21;5.57;;;2.97;;
52942;SDS011;38809;53.300;6.614;2023-06-05T13:40:48;4.30;;;2.67;;
52942;SDS011;38809;53.300;6.614;2023-06-05T13:43:16;5.45;;;2.72;;
52942;SDS011;38809;53.300;6.614;2023-06-05T13:45:42;3.60;;;2.70;;
52942;SDS011;38809;53.300;6.614;2023-06-05T13:48:08;5.55;;;2.60;;
52942;SDS011;38809;53.300;6.614;2023-06-05T13:50:34;4.88;;;2.75;;
52942;SDS011;38809;53.300;6.614;2023-06-05T13:53:00;3.60;;;2.60;;
52942;SDS011;38809;53.300;6.614;2023-06-05T13:55:26;4.22;;;2.45;;
52942;SDS011;38809;53.300;6.614;2023-06-05T13:57:51;4.88;;;3.05;;
52942;SDS011;38809;53.300;6.614;2023-06-05T14:00:17;4.03;;;2.72;;
52942;SDS011;38809;53.300;6.614;2023-06-05T14:02:43;4.68;;;2.75;;
52942;SDS011;38809;53.300;6.614;2023-06-05T14:05:09;4.35;;;2.65;;
52942;SDS011;38809;53.300;6.614;2023-06-05T14:07:38;4.28;;;2.70;;
52942;SDS011;38809;53.300;6.614;2023-06-05T14:10:03;3.95;;;2.88;;
52942;SDS011;38809;53.300;6.614;2023-06-05T14:14:56;5.47;;;2.75;;
52942;SDS011;38809;53.300;6.614;2023-06-05T14:17:22;5.10;;;2.58;;
52942;SDS011;38809;53.300;6.614;2023-06-05T14:19:47;4.25;;;2.83;;
52942;SDS011;38809;53.300;6.614;2023-06-05T14:22:13;4.30;;;2.70;;
52942;SDS011;38809;53.300;6.614;2023-06-05T14:24:39;3.85;;;2.85;;
52942;SDS011;38809;53.300;6.614;2023-06-05T14:27:05;3.63;;;2.50;;
52942;SDS011;38809;53.300;6.614;2023-06-05T14:29:32;4.88;;;2.83;;
52942;SDS011;38809;53.300;6.614;2023-06-05T14:32:00;6.00;;;3.28;;
52942;SDS011;38809;53.300;6.614;2023-06-05T14:34:26;6.05;;;2.60;;
52942;SDS011;38809;53.300;6.614;2023-06-05T14:36:52;4.28;;;3.00;;
52942;SDS011;38809;53.300;6.614;2023-06-05T14:39:17;4.78;;;3.25;;
52942;SDS011;38809;53.300;6.614;2023-06-05T14:41:45;3.88;;;2.85;;
52942;SDS011;38809;53.300;6.614;2023-06-05T14:44:11;5.13;;;3.42;;
52942;SDS011;38809;53.300;6.614;2023-06-05T14:46:37;4.50;;;3.42;;
52942;SDS011;38809;53.300;6.614;2023-06-05T14:49:02;8.00;;;3.00;;
52942;SDS011;38809;53.300;6.614;2023-06-05T14:51:28;5.20;;;2.90;;
52942;SDS011;38809;53.300;6.614;2023-06-05T14:53:54;4.57;;;2.70;;
52942;SDS011;38809;53.300;6.614;2023-06-05T14:56:20;5.03;;;2.50;;
52942;SDS011;38809;53.300;6.614;2023-06-05T14:58:47;4.95;;;3.10;;
52942;SDS011;38809;53.300;6.614;2023-06-05T15:01:13;4.75;;;2.75;;
52942;SDS011;38809;53.300;6.614;2023-06-05T15:03:39;5.32;;;3.28;;
52942;SDS011;38809;53.300;6.614;2023-06-05T15:08:31;4.35;;;2.67;;
52942;SDS011;38809;53.300;6.614;2023-06-05T15:10:57;5.18;;;3.30;;
52942;SDS011;38809;53.300;6.614;2023-06-05T15:13:22;4.53;;;3.30;;
52942;SDS011;38809;53.300;6.614;2023-06-05T15:15:49;5.68;;;2.83;;
52942;SDS011;38809;53.300;6.614;2023-06-05T15:18:15;5.65;;;3.42;;
52942;SDS011;38809;53.300;6.614;2023-06-05T15:20:40;4.80;;;3.13;;
52942;SDS011;38809;53.300;6.614;2023-06-05T15:23:06;6.03;;;3.20;;
52942;SDS011;38809;53.300;6.614;2023-06-05T15:25:32;6.63;;;3.70;;
52942;SDS011;38809;53.300;6.614;2023-06-05T15:28:00;5.13;;;3.33;;
52942;SDS011;38809;53.300;6.614;2023-06-05T15:30:26;5.70;;;4.35;;
52942;SDS011;38809;53.300;6.614;2023-06-05T15:32:51;4.43;;;3.22;;
52942;SDS011;38809;53.300;6.614;2023-06-05T15:35:17;7.57;;;2.97;;
52942;SDS011;38809;53.300;6.614;2023-06-05T15:37:43;4.70;;;3.20;;
52942;SDS011;38809;53.300;6.614;2023-06-05T15:40:09;6.30;;;2.92;;
52942;SDS011;38809;53.300;6.614;2023-06-05T15:42:36;6.00;;;3.10;;
52942;SDS011;38809;53.300;6.614;2023-06-05T15:45:06;8.00;;;3.05;;
52942;SDS011;38809;53.300;6.614;2023-06-05T15:47:33;4.43;;;2.90;;
52942;SDS011;38809;53.300;6.614;2023-06-05T15:49:59;6.38;;;3.15;;
52942;SDS011;38809;53.300;6.614;2023-06-05T15:54:54;6.22;;;3.40;;
52942;SDS011;38809;53.300;6.614;2023-06-05T15:57:20;6.68;;;2.92;;
52942;SDS011;38809;53.300;6.614;2023-06-05T15:59:46;4.43;;;2.55;;
52942;SDS011;38809;53.300;6.614;2023-06-05T16:02:11;4.80;;;2.70;;
52942;SDS011;38809;53.300;6.614;2023-06-05T16:04:37;3.95;;;2.53;;
52942;SDS011;38809;53.300;6.614;2023-06-05T16:07:03;5.22;;;2.80;;
52942;SDS011;38809;53.300;6.614;2023-06-05T16:09:29;5.85;;;3.00;;
52942;SDS011;38809;53.300;6.614;2023-06-05T16:11:54;5.25;;;3.33;;
52942;SDS011;38809;53.300;6.614;2023-06-05T16:14:20;4.10;;;2.90;;